Terri L. Brusco — WDC3034 — position and weather

sailwx.info

Track history (hours):
 
Tides and Currents Weather Stations Pressure Air Temp Water Temp Dewpoint Dewpoint Depression Visibility Wind Speed Wind Dir Waves Ship Positions

Terri L. Brusco

Owner: Brusco Tug & Barge, Inc., Longview, WA. More information available from US FCC via Universal Licensing System and Coast Guard Vessel Documentation Center.

Last reported at 2018-Jun-20 08:34 UTC. Time now 2018-Jun-20 17:23 UTC.
Position N 38°40' W 123°32'.

Length 21 m; draft 4 m.

Type: Tow > 200 m length. MMSI: 367001830.

Date/timePositionNaut miles runAvg speedWind from/ knotsBaromVisibWave heightAir tempDewpointWater temp
2018-Jun-20 08:34N 38°40' W 123°32'1 8.1
2018-Jun-20 08:27N 38°40' W 123°31'4 8.3
2018-Jun-20 08:00N 38°37' W 123°27'4 8.4
2018-Jun-20 07:31N 38°34' W 123°24'4 8.5
2018-Jun-20 07:00N 38°31' W 123°20'4 8.8
2018-Jun-20 06:30N 38°28' W 123°16'4 9.0
2018-Jun-20 06:01N 38°24' W 123°13'5 9.0
2018-Jun-20 05:30N 38°20' W 123°11'5 9.3
2018-Jun-20 05:00N 38°15' W 123°09'510.1
2018-Jun-20 04:30N 38°10' W 123°07'510.3
2018-Jun-20 04:01N 38°05' W 123°05'510.2
2018-Jun-20 03:30N 38°01' W 123°03'510.0
2018-Jun-20 03:01N 37°56' W 123°00'510.3
2018-Jun-20 02:31N 37°53' W 122°55'610.3
2018-Jun-20 01:58N 37°50' W 122°49'510.4
2018-Jun-20 01:30N 37°48' W 122°44'510.0
2018-Jun-20 01:00N 37°46' W 122°38'5 9.3
2018-Jun-20 00:31N 37°48' W 122°33'4 8.6
2018-Jun-20 00:00N 37°49' W 122°27'4 8.6
2018-Jun-19 23:30N 37°48' W 122°22'3 5.7
2018-Jun-19 23:00N 37°49' W 122°19'0 0.1
2018-Jun-19 22:30N 37°49' W 122°19'0 0.6
2018-Jun-19 22:00N 37°49' W 122°19'0 0.1
2018-Jun-19 21:30N 37°49' W 122°18'0 0.0
2018-Jun-19 21:01N 37°49' W 122°18'0 0.1
2018-Jun-19 20:30N 37°49' W 122°19'0 0.1
2018-Jun-19 20:01N 37°49' W 122°18'0 0.0
2018-Jun-19 19:29N 37°49' W 122°18'0 0.0
2018-Jun-19 19:00N 37°49' W 122°18'0 0.0
2018-Jun-19 18:30N 37°49' W 122°18'0 0.0
2018-Jun-19 18:00N 37°49' W 122°18'0 0.0
2018-Jun-19 17:30N 37°49' W 122°18'0 0.1
2018-Jun-19 17:00N 37°49' W 122°19'0 0.0
2018-Jun-19 16:30N 37°49' W 122°19'0 0.1
2018-Jun-19 16:01N 37°49' W 122°18'0 0.0
2018-Jun-19 15:30N 37°49' W 122°18'0 0.0
2018-Jun-19 15:00N 37°49' W 122°18'0 0.0
2018-Jun-19 14:30N 37°49' W 122°18'0 0.0
2018-Jun-19 14:00N 37°49' W 122°18'0 0.0
2018-Jun-19 13:30N 37°49' W 122°18'0 0.0
2018-Jun-19 13:00N 37°49' W 122°18'0 0.0
2018-Jun-19 12:28N 37°49' W 122°18'0 0.0
2018-Jun-19 12:00N 37°49' W 122°18'0 0.0
2018-Jun-19 11:30N 37°49' W 122°18'0 0.0
2018-Jun-19 10:59N 37°49' W 122°18'0 0.0
2018-Jun-19 10:30N 37°49' W 122°18'0 0.0
2018-Jun-19 10:00N 37°49' W 122°18'0 0.0
2018-Jun-19 09:30N 37°49' W 122°18'0 0.0
2018-Jun-19 09:00N 37°49' W 122°18'0 0.0
2018-Jun-19 08:27N 37°49' W 122°18'0 0.0
2018-Jun-19 08:00N 37°49' W 122°18'0 0.0
2018-Jun-19 07:30N 37°49' W 122°18'0 0.0
2018-Jun-19 07:00N 37°49' W 122°18'0 0.0
2018-Jun-19 06:30N 37°49' W 122°18'0 0.0
2018-Jun-19 06:00N 37°49' W 122°18'0 0.0
2018-Jun-19 05:30N 37°49' W 122°18'0 0.0
2018-Jun-19 05:00N 37°49' W 122°18'3 5.3
2018-Jun-19 04:31N 37°50' W 122°22'510.9
2018-Jun-19 04:00N 37°55' W 122°25'12 9.5
2018-Jun-19 02:44N 38°04' W 122°15'2 9.6
2018-Jun-19 02:31N 38°04' W 122°12'5 8.4
2018-Jun-19 01:56N 38°03' W 122°06'4 9.5
2018-Jun-19 01:30N 38°04' W 122°01'5 9.4
2018-Jun-19 01:00N 38°03' W 121°55'  
2018-Jun-15 16:27N 38°04' W 121°58'0 0.0
2018-Jun-15 15:59N 38°04' W 121°58'0 0.0
2018-Jun-15 15:31N 38°04' W 121°58'2 0.6
2018-Jun-15 13:08N 38°03' W 121°57'6 0.4
2018-Jun-14 22:32N 38°01' W 121°49'011.9
2018-Jun-14 22:31N 38°01' W 121°49'  
2018-Jun-11 15:32N 38°03' W 121°55'  
Track history (hours):
 
Tides and Currents Weather Stations Pressure Air Temp Water Temp Dewpoint Dewpoint Depression Visibility Wind Speed Wind Dir Waves Ship Positions

Terri L. Brusco

Owner: Brusco Tug & Barge, Inc., Longview, WA. More information available from US FCC via Universal Licensing System and Coast Guard Vessel Documentation Center.

Last reported at 2018-Jun-20 08:34 UTC. Time now 2018-Jun-20 17:23 UTC.
Position N 38°40' W 123°32'.

Length 21 m; draft 4 m.

Type: Tow > 200 m length. MMSI: 367001830.

Date/timePositionNaut miles runAvg speedWind from/ knotsBaromVisibWave heightAir tempDewpointWater temp
2018-Jun-20 08:34N 38°40' W 123°32'1 8.1
2018-Jun-20 08:27N 38°40' W 123°31'4 8.3
2018-Jun-20 08:00N 38°37' W 123°27'4 8.4
2018-Jun-20 07:31N 38°34' W 123°24'4 8.5
2018-Jun-20 07:00N 38°31' W 123°20'4 8.8
2018-Jun-20 06:30N 38°28' W 123°16'4 9.0
2018-Jun-20 06:01N 38°24' W 123°13'5 9.0
2018-Jun-20 05:30N 38°20' W 123°11'5 9.3
2018-Jun-20 05:00N 38°15' W 123°09'510.1
2018-Jun-20 04:30N 38°10' W 123°07'510.3
2018-Jun-20 04:01N 38°05' W 123°05'510.2
2018-Jun-20 03:30N 38°01' W 123°03'510.0
2018-Jun-20 03:01N 37°56' W 123°00'510.3
2018-Jun-20 02:31N 37°53' W 122°55'610.3
2018-Jun-20 01:58N 37°50' W 122°49'510.4
2018-Jun-20 01:30N 37°48' W 122°44'510.0
2018-Jun-20 01:00N 37°46' W 122°38'5 9.3
2018-Jun-20 00:31N 37°48' W 122°33'4 8.6
2018-Jun-20 00:00N 37°49' W 122°27'4 8.6
2018-Jun-19 23:30N 37°48' W 122°22'3 5.7
2018-Jun-19 23:00N 37°49' W 122°19'0 0.1
2018-Jun-19 22:30N 37°49' W 122°19'0 0.6
2018-Jun-19 22:00N 37°49' W 122°19'0 0.1
2018-Jun-19 21:30N 37°49' W 122°18'0 0.0
2018-Jun-19 21:01N 37°49' W 122°18'0 0.1
2018-Jun-19 20:30N 37°49' W 122°19'0 0.1
2018-Jun-19 20:01N 37°49' W 122°18'0 0.0
2018-Jun-19 19:29N 37°49' W 122°18'0 0.0
2018-Jun-19 19:00N 37°49' W 122°18'0 0.0
2018-Jun-19 18:30N 37°49' W 122°18'0 0.0
2018-Jun-19 18:00N 37°49' W 122°18'0 0.0
2018-Jun-19 17:30N 37°49' W 122°18'0 0.1
2018-Jun-19 17:00N 37°49' W 122°19'0 0.0
2018-Jun-19 16:30N 37°49' W 122°19'0 0.1
2018-Jun-19 16:01N 37°49' W 122°18'0 0.0
2018-Jun-19 15:30N 37°49' W 122°18'0 0.0
2018-Jun-19 15:00N 37°49' W 122°18'0 0.0
2018-Jun-19 14:30N 37°49' W 122°18'0 0.0
2018-Jun-19 14:00N 37°49' W 122°18'0 0.0
2018-Jun-19 13:30N 37°49' W 122°18'0 0.0
2018-Jun-19 13:00N 37°49' W 122°18'0 0.0
2018-Jun-19 12:28N 37°49' W 122°18'0 0.0
2018-Jun-19 12:00N 37°49' W 122°18'0 0.0
2018-Jun-19 11:30N 37°49' W 122°18'0 0.0
2018-Jun-19 10:59N 37°49' W 122°18'0 0.0
2018-Jun-19 10:30N 37°49' W 122°18'0 0.0
2018-Jun-19 10:00N 37°49' W 122°18'0 0.0
2018-Jun-19 09:30N 37°49' W 122°18'0 0.0
2018-Jun-19 09:00N 37°49' W 122°18'0 0.0
2018-Jun-19 08:27N 37°49' W 122°18'0 0.0
2018-Jun-19 08:00N 37°49' W 122°18'0 0.0
2018-Jun-19 07:30N 37°49' W 122°18'0 0.0
2018-Jun-19 07:00N 37°49' W 122°18'0 0.0
2018-Jun-19 06:30N 37°49' W 122°18'0 0.0
2018-Jun-19 06:00N 37°49' W 122°18'0 0.0
2018-Jun-19 05:30N 37°49' W 122°18'0 0.0
2018-Jun-19 05:00N 37°49' W 122°18'3 5.3
2018-Jun-19 04:31N 37°50' W 122°22'510.9
2018-Jun-19 04:00N 37°55' W 122°25'12 9.5
2018-Jun-19 02:44N 38°04' W 122°15'2 9.6
2018-Jun-19 02:31N 38°04' W 122°12'5 8.4
2018-Jun-19 01:56N 38°03' W 122°06'4 9.5
2018-Jun-19 01:30N 38°04' W 122°01'5 9.4
2018-Jun-19 01:00N 38°03' W 121°55'  
2018-Jun-15 16:27N 38°04' W 121°58'0 0.0
2018-Jun-15 15:59N 38°04' W 121°58'0 0.0
2018-Jun-15 15:31N 38°04' W 121°58'2 0.6
2018-Jun-15 13:08N 38°03' W 121°57'6 0.4
2018-Jun-14 22:32N 38°01' W 121°49'011.9
2018-Jun-14 22:31N 38°01' W 121°49'  
2018-Jun-11 15:32N 38°03' W 121°55'  

Dump ship's entire track history